createdAt,value
2018-01-12T00:00:06.793Z,6.53
2018-01-12T00:01:06.729Z,6.54
2018-01-12T00:02:06.672Z,6.47
2018-01-12T00:03:06.600Z,6.48
2018-01-12T00:04:06.540Z,6.48
2018-01-12T00:05:06.473Z,6.44
2018-01-12T00:06:06.408Z,6.41
2018-01-12T00:07:06.345Z,6.40
2018-01-12T00:08:06.281Z,6.44
2018-01-12T00:09:06.219Z,6.41
2018-01-12T00:10:06.153Z,6.35
2018-01-12T00:11:06.089Z,6.43
2018-01-12T00:12:06.028Z,6.33
2018-01-12T00:13:05.961Z,6.29
2018-01-12T00:14:05.896Z,6.36
2018-01-12T00:15:05.833Z,6.36
2018-01-12T00:16:05.773Z,6.28
2018-01-12T00:17:05.704Z,6.36
2018-01-12T00:18:05.640Z,6.35
2018-01-12T00:19:05.577Z,6.26
2018-01-12T00:20:05.583Z,6.26
2018-01-12T00:21:05.458Z,6.21
2018-01-12T00:22:05.384Z,6.14
2018-01-12T00:23:05.321Z,6.14
2018-01-12T00:24:05.255Z,6.18
2018-01-12T00:25:05.192Z,6.14
2018-01-12T00:26:05.131Z,6.11
2018-01-12T00:27:05.064Z,6.07
2018-01-12T00:28:05.001Z,6.01
2018-01-12T00:29:04.936Z,6.01
2018-01-12T00:30:04.871Z,6.06
2018-01-12T00:31:04.810Z,6.04
2018-01-12T00:32:04.750Z,6.03
2018-01-12T00:33:04.676Z,6.04
2018-01-12T00:34:04.615Z,6.01
2018-01-12T00:35:04.551Z,5.89
2018-01-12T00:36:04.487Z,5.83
2018-01-12T00:37:04.422Z,5.83
2018-01-12T00:38:04.357Z,5.96
2018-01-12T00:39:04.293Z,5.89
2018-01-12T00:40:04.229Z,5.82
2018-01-12T00:41:04.165Z,5.78
2018-01-12T00:42:04.101Z,5.81
2018-01-12T00:43:04.038Z,5.78
2018-01-12T00:44:03.974Z,5.86
2018-01-12T00:45:03.906Z,5.82
2018-01-12T00:46:03.844Z,5.81
2018-01-12T00:47:03.779Z,5.77
2018-01-12T00:48:03.717Z,5.75
2018-01-12T00:49:03.651Z,5.77
2018-01-12T00:50:03.585Z,5.70
2018-01-12T00:51:03.524Z,5.70
2018-01-12T00:52:03.459Z,5.70
2018-01-12T00:53:03.392Z,5.68
2018-01-12T00:54:03.330Z,5.85
2018-01-12T00:55:03.265Z,5.74
2018-01-12T00:56:03.201Z,5.82
2018-01-12T00:57:03.138Z,5.89
2018-01-12T00:58:03.071Z,5.77
2018-01-12T00:59:03.014Z,5.85
2018-01-12T01:00:02.993Z,5.75
2018-01-12T01:01:02.938Z,5.86
2018-01-12T01:02:02.816Z,5.93
2018-01-12T01:03:02.753Z,5.92
2018-01-12T01:04:02.687Z,6.00
2018-01-12T01:05:02.621Z,5.91
2018-01-12T01:06:02.560Z,5.95
2018-01-12T01:07:02.492Z,5.98
2018-01-12T01:08:02.430Z,6.01
2018-01-12T01:09:02.364Z,5.98
2018-01-12T01:10:02.301Z,6.04
2018-01-12T01:11:02.238Z,6.01
2018-01-12T01:12:02.175Z,6.07
2018-01-12T01:13:02.107Z,6.10
2018-01-12T01:14:02.043Z,6.07
2018-01-12T01:15:01.984Z,6.09
2018-01-12T01:16:01.915Z,6.09
2018-01-12T01:17:01.853Z,6.09
2018-01-12T01:18:01.785Z,6.09
2018-01-12T01:19:01.722Z,6.09
2018-01-12T01:20:01.659Z,6.11
2018-01-12T01:21:01.592Z,6.16
2018-01-12T01:22:01.528Z,6.07
2018-01-12T01:23:01.464Z,6.07
2018-01-12T01:24:01.400Z,6.14
2018-01-12T01:25:01.336Z,6.06
2018-01-12T01:26:01.271Z,6.13
2018-01-12T01:27:01.205Z,6.09
2018-01-12T01:28:01.142Z,6.13
2018-01-12T01:29:01.076Z,6.10
2018-01-12T01:30:01.013Z,6.14
2018-01-12T01:31:00.953Z,6.11
2018-01-12T01:32:00.885Z,6.07
2018-01-12T01:33:00.819Z,6.06
2018-01-12T01:34:00.754Z,6.09
2018-01-12T01:35:00.692Z,6.10
2018-01-12T01:36:00.628Z,6.06
2018-01-12T01:37:00.563Z,6.09
2018-01-12T01:38:00.498Z,6.09
2018-01-12T01:39:00.434Z,6.06
2018-01-12T01:40:00.368Z,6.06
2018-01-12T01:41:00.308Z,6.09
2018-01-12T01:42:00.240Z,6.04
2018-01-12T01:43:00.175Z,6.07
2018-01-12T01:44:00.111Z,6.06
2018-01-12T01:45:00.057Z,6.01
2018-01-12T01:45:59.980Z,6.06
2018-01-12T01:46:59.916Z,6.03
2018-01-12T01:47:59.852Z,6.01
2018-01-12T01:48:59.787Z,6.07
2018-01-12T01:49:59.724Z,5.95
2018-01-12T01:50:59.660Z,6.00
2018-01-12T01:51:59.594Z,6.00
2018-01-12T01:52:59.529Z,5.98
2018-01-12T01:53:59.465Z,5.89
2018-01-12T01:54:59.400Z,5.91
2018-01-12T01:55:59.336Z,6.01
2018-01-12T01:56:59.270Z,5.95
2018-01-12T01:57:59.206Z,5.92
2018-01-12T01:58:59.145Z,5.89
2018-01-12T01:59:59.078Z,5.91
2018-01-12T02:00:59.013Z,5.91
2018-01-12T02:01:58.951Z,5.93
2018-01-12T02:02:58.884Z,5.88
2018-01-12T02:03:58.821Z,5.89
2018-01-12T02:04:58.755Z,5.91
2018-01-12T02:05:58.691Z,5.91
2018-01-12T02:06:58.627Z,5.92
2018-01-12T02:07:58.561Z,5.88
2018-01-12T02:08:58.498Z,5.88
2018-01-12T02:09:58.432Z,5.81
2018-01-12T02:10:58.367Z,5.78
2018-01-12T02:11:58.305Z,5.81
2018-01-12T02:12:58.238Z,5.86
2018-01-12T02:13:58.175Z,5.78
2018-01-12T02:14:58.109Z,5.75
2018-01-12T02:15:58.045Z,5.75
2018-01-12T02:16:57.980Z,5.78
2018-01-12T02:17:57.916Z,5.77
2018-01-12T02:18:57.851Z,5.77
2018-01-12T02:19:57.787Z,5.83
2018-01-12T02:20:57.725Z,5.81
2018-01-12T02:21:57.657Z,5.81
2018-01-12T02:22:57.594Z,5.77
2018-01-12T02:23:57.530Z,5.78
2018-01-12T02:24:57.467Z,5.81
2018-01-12T02:25:57.401Z,5.78
2018-01-12T02:26:57.335Z,5.83
2018-01-12T02:27:57.269Z,5.89
2018-01-12T02:28:57.252Z,5.82
2018-01-12T02:29:57.143Z,5.83
2018-01-12T02:30:57.075Z,5.75
2018-01-12T02:31:57.011Z,5.74
2018-01-12T02:32:56.949Z,5.74
2018-01-12T02:33:56.882Z,5.77
2018-01-12T02:34:56.817Z,5.75
2018-01-12T02:35:56.754Z,5.74
2018-01-12T02:36:56.687Z,5.74
2018-01-12T02:37:56.623Z,5.68
2018-01-12T02:38:56.558Z,5.75
2018-01-12T02:39:56.494Z,5.71
2018-01-12T02:40:56.428Z,5.75
2018-01-12T02:41:56.363Z,5.70
2018-01-12T02:42:56.299Z,5.68
2018-01-12T02:43:56.235Z,5.74
2018-01-12T02:44:56.172Z,5.68
2018-01-12T02:45:56.105Z,5.73
2018-01-12T02:46:56.041Z,5.67
2018-01-12T02:47:55.977Z,5.67
2018-01-12T02:48:55.911Z,5.66
2018-01-12T02:49:55.847Z,5.66
2018-01-12T02:50:55.781Z,5.68
2018-01-12T02:51:55.717Z,5.64
2018-01-12T02:52:55.651Z,5.67
2018-01-12T02:53:55.588Z,5.71
2018-01-12T02:54:55.524Z,5.68
2018-01-12T02:55:55.458Z,5.66
2018-01-12T02:56:55.398Z,5.71
2018-01-12T02:57:55.328Z,5.73
2018-01-12T02:58:55.262Z,5.71
2018-01-12T02:59:55.200Z,5.71
2018-01-12T03:00:55.132Z,5.67
2018-01-12T03:01:55.068Z,5.71
2018-01-12T03:02:55.003Z,5.66
2018-01-12T03:03:54.940Z,5.70
2018-01-12T03:04:54.873Z,5.66
2018-01-12T03:05:54.810Z,5.64
2018-01-12T03:06:54.745Z,5.67
2018-01-12T03:07:54.681Z,5.71
2018-01-12T03:08:54.617Z,5.71
2018-01-12T03:09:54.551Z,5.67
2018-01-12T03:10:54.490Z,5.67
2018-01-12T03:11:54.422Z,5.68
2018-01-12T03:12:54.355Z,5.70
2018-01-12T03:13:54.292Z,5.64
2018-01-12T03:14:54.227Z,5.67
2018-01-12T03:15:54.164Z,5.64
2018-01-12T03:16:54.099Z,5.67
2018-01-12T03:17:54.034Z,5.67
2018-01-12T03:18:53.969Z,5.73
2018-01-12T03:19:53.904Z,5.66
2018-01-12T03:20:53.840Z,5.71
2018-01-12T03:21:53.774Z,5.73
2018-01-12T03:22:53.710Z,5.64
2018-01-12T03:23:53.647Z,5.81
2018-01-12T03:24:53.579Z,5.66
2018-01-12T03:25:53.516Z,5.73
2018-01-12T03:26:53.452Z,5.66
2018-01-12T03:27:53.387Z,5.68
2018-01-12T03:28:53.322Z,5.67
2018-01-12T03:29:53.257Z,5.77
2018-01-12T03:30:53.197Z,5.66
2018-01-12T03:31:53.129Z,5.63
2018-01-12T03:32:53.063Z,5.73
2018-01-12T03:33:52.999Z,5.70
2018-01-12T03:34:52.935Z,5.70
2018-01-12T03:35:52.871Z,5.73
2018-01-12T03:36:52.804Z,5.75
2018-01-12T03:37:52.746Z,5.73
2018-01-12T03:38:52.677Z,5.67
2018-01-12T03:39:52.613Z,5.60
2018-01-12T03:40:52.550Z,5.68
2018-01-12T03:41:52.483Z,5.67
2018-01-12T03:42:52.418Z,5.59
2018-01-12T03:43:52.353Z,5.67
2018-01-12T03:44:52.287Z,5.68
2018-01-12T03:45:52.223Z,5.59
2018-01-12T03:46:52.159Z,5.60
2018-01-12T03:47:52.095Z,5.64
2018-01-12T03:48:52.030Z,5.60
2018-01-12T03:49:51.964Z,5.59
2018-01-12T03:50:51.899Z,5.66
2018-01-12T03:51:51.835Z,5.68
2018-01-12T03:52:51.769Z,5.60
2018-01-12T03:53:51.705Z,5.66
2018-01-12T03:54:51.640Z,5.60
2018-01-12T03:55:51.579Z,5.59
2018-01-12T03:56:51.511Z,5.67
2018-01-12T03:57:51.446Z,5.53
2018-01-12T03:58:51.384Z,5.63
2018-01-12T03:59:51.316Z,5.59
2018-01-12T04:00:51.251Z,5.53
2018-01-12T04:01:51.186Z,5.57
2018-01-12T04:02:51.121Z,5.49
2018-01-12T04:03:51.057Z,5.46
2018-01-12T04:04:50.991Z,5.50
2018-01-12T04:05:50.926Z,5.50
2018-01-12T04:06:50.865Z,5.49
2018-01-12T04:07:50.798Z,5.48
2018-01-12T04:08:50.731Z,5.49
2018-01-12T04:09:50.667Z,5.46
2018-01-12T04:10:50.603Z,5.50
2018-01-12T04:11:50.537Z,5.46
2018-01-12T04:12:50.472Z,5.37
2018-01-12T04:13:50.407Z,5.45
2018-01-12T04:14:50.343Z,5.43
2018-01-12T04:15:50.277Z,5.46
2018-01-12T04:16:50.212Z,5.41
2018-01-12T04:17:50.147Z,5.41
2018-01-12T04:18:50.083Z,5.37
2018-01-12T04:19:50.020Z,5.43
2018-01-12T04:20:49.953Z,5.46
2018-01-12T04:21:49.886Z,5.45
2018-01-12T04:22:49.824Z,5.45
2018-01-12T04:23:49.758Z,5.46
2018-01-12T04:24:49.694Z,5.43
2018-01-12T04:25:49.629Z,5.45
2018-01-12T04:26:49.564Z,5.41
2018-01-12T04:27:49.500Z,5.49
2018-01-12T04:28:49.435Z,5.40
2018-01-12T04:29:49.367Z,5.45
2018-01-12T04:30:49.304Z,5.35
2018-01-12T04:31:49.239Z,5.43
2018-01-12T04:32:49.173Z,5.32
2018-01-12T04:33:49.110Z,5.40
2018-01-12T04:34:49.044Z,5.34
2018-01-12T04:35:48.979Z,5.37
2018-01-12T04:36:48.914Z,5.32
2018-01-12T04:37:48.849Z,5.37
2018-01-12T04:38:48.784Z,5.34
2018-01-12T04:39:48.719Z,5.38
2018-01-12T04:40:48.653Z,5.41
2018-01-12T04:41:48.588Z,5.38
2018-01-12T04:42:48.522Z,5.27
2018-01-12T04:43:48.459Z,5.31
2018-01-12T04:44:48.392Z,5.32
2018-01-12T04:45:48.329Z,5.27
2018-01-12T04:46:48.264Z,5.31
2018-01-12T04:47:48.200Z,5.31
2018-01-12T04:48:48.132Z,5.30
2018-01-12T04:49:48.069Z,5.25
2018-01-12T04:50:48.002Z,5.31
2018-01-12T04:51:47.937Z,5.31
2018-01-12T04:52:47.875Z,5.31
2018-01-12T04:53:47.808Z,5.17
2018-01-12T04:54:47.743Z,5.23
2018-01-12T04:55:47.678Z,5.23
2018-01-12T04:56:47.615Z,5.22
2018-01-12T04:57:47.550Z,5.30
2018-01-12T04:58:47.485Z,5.23
2018-01-12T04:59:47.424Z,5.22
2018-01-12T05:00:47.354Z,5.23
2018-01-12T05:01:47.289Z,5.25
2018-01-12T05:02:47.224Z,5.23
2018-01-12T05:03:47.161Z,5.20
2018-01-12T05:04:47.094Z,5.22
2018-01-12T05:05:47.029Z,5.27
2018-01-12T05:06:46.965Z,5.22
2018-01-12T05:07:46.899Z,5.25
2018-01-12T05:08:46.833Z,5.23
2018-01-12T05:09:46.769Z,5.22
2018-01-12T05:10:46.704Z,5.31
2018-01-12T05:11:46.639Z,5.22
2018-01-12T05:12:46.574Z,5.17
2018-01-12T05:13:46.508Z,5.25
2018-01-12T05:14:46.443Z,5.31
2018-01-12T05:15:46.378Z,5.32
2018-01-12T05:16:46.312Z,5.23
2018-01-12T05:17:46.247Z,5.17
2018-01-12T05:18:46.183Z,5.19
2018-01-12T05:19:46.119Z,5.14
2018-01-12T05:20:46.053Z,5.20
2018-01-12T05:21:45.987Z,5.17
2018-01-12T05:22:45.922Z,5.16
2018-01-12T05:23:45.856Z,5.14
2018-01-12T05:24:45.790Z,5.14
2018-01-12T05:25:45.724Z,5.14
2018-01-12T05:26:45.660Z,5.13
2018-01-12T05:27:45.638Z,5.17
2018-01-12T05:28:45.531Z,5.16
2018-01-12T05:29:45.468Z,5.14
2018-01-12T05:30:45.399Z,5.14
2018-01-12T05:31:45.335Z,5.14
2018-01-12T05:32:45.268Z,5.14
2018-01-12T05:33:45.204Z,5.16
2018-01-12T05:34:45.139Z,5.12
2018-01-12T05:35:45.074Z,5.05
2018-01-12T05:36:45.009Z,5.09
2018-01-12T05:37:44.943Z,5.13
2018-01-12T05:38:44.878Z,5.10
2018-01-12T05:39:44.814Z,5.13
2018-01-12T05:40:44.748Z,5.09
2018-01-12T05:41:44.682Z,5.14
2018-01-12T05:42:44.617Z,5.10
2018-01-12T05:43:44.552Z,5.10
2018-01-12T05:44:44.485Z,5.12
2018-01-12T05:45:44.422Z,5.12
2018-01-12T05:46:44.356Z,5.09
2018-01-12T05:47:44.291Z,5.13
2018-01-12T05:48:44.224Z,5.10
2018-01-12T05:49:44.159Z,5.12
2018-01-12T05:50:44.094Z,5.09
2018-01-12T05:51:44.029Z,5.10
2018-01-12T05:52:43.964Z,5.09
2018-01-12T05:53:43.899Z,5.14
2018-01-12T05:54:43.834Z,5.10
2018-01-12T05:55:43.768Z,5.10
2018-01-12T05:56:43.703Z,5.09
2018-01-12T05:57:43.639Z,5.09
2018-01-12T05:58:43.572Z,5.07
2018-01-12T05:59:43.509Z,5.12
2018-01-12T06:00:43.442Z,5.05
2018-01-12T06:01:43.379Z,5.04
2018-01-12T06:02:43.311Z,5.07
2018-01-12T06:03:43.248Z,5.02
2018-01-12T06:04:43.181Z,5.07
2018-01-12T06:05:43.115Z,5.04
2018-01-12T06:06:43.051Z,5.07
2018-01-12T06:07:42.985Z,5.17
2018-01-12T06:08:42.971Z,5.07
2018-01-12T06:09:42.854Z,5.01
2018-01-12T06:10:42.789Z,5.09
2018-01-12T06:11:42.725Z,5.09
2018-01-12T06:12:42.660Z,5.09
2018-01-12T06:13:42.594Z,5.05
2018-01-12T06:14:42.529Z,5.07
2018-01-12T06:15:42.464Z,5.10
2018-01-12T06:16:42.398Z,5.05
2018-01-12T06:17:42.337Z,5.05
2018-01-12T06:18:42.268Z,5.04
2018-01-12T06:19:42.206Z,5.04
2018-01-12T06:20:42.137Z,5.07
2018-01-12T06:21:42.072Z,5.09
2018-01-12T06:22:42.007Z,5.07
2018-01-12T06:23:41.941Z,5.09
2018-01-12T06:24:41.876Z,5.10
2018-01-12T06:25:41.811Z,5.09
2018-01-12T06:26:41.746Z,5.07
2018-01-12T06:27:41.680Z,5.07
2018-01-12T06:28:41.617Z,5.07
2018-01-12T06:29:41.549Z,5.16
2018-01-12T06:30:41.489Z,5.13
2018-01-12T06:31:41.422Z,4.99
2018-01-12T06:32:41.355Z,5.01
2018-01-12T06:33:41.290Z,5.01
2018-01-12T06:34:41.230Z,5.05
2018-01-12T06:35:41.161Z,5.05
2018-01-12T06:36:41.094Z,5.12
2018-01-12T06:37:41.030Z,4.99
2018-01-12T06:38:40.964Z,5.07
2018-01-12T06:39:40.900Z,5.10
2018-01-12T06:40:40.833Z,5.05
2018-01-12T06:41:40.768Z,5.12
2018-01-12T06:42:40.703Z,5.01
2018-01-12T06:43:40.638Z,5.05
2018-01-12T06:44:40.572Z,5.09
2018-01-12T06:45:40.507Z,5.12
2018-01-12T06:46:40.443Z,5.10
2018-01-12T06:47:40.377Z,5.09
2018-01-12T06:48:40.311Z,5.04
2018-01-12T06:49:40.250Z,5.04
2018-01-12T06:50:40.182Z,5.07
2018-01-12T06:51:40.118Z,5.04
2018-01-12T06:52:40.052Z,5.09
2018-01-12T06:53:40.037Z,5.07
2018-01-12T06:54:39.922Z,5.10
2018-01-12T06:55:39.857Z,5.07
2018-01-12T06:56:39.793Z,5.12
2018-01-12T06:57:39.727Z,5.07
2018-01-12T06:58:39.660Z,5.10
2018-01-12T06:59:39.602Z,5.04
2018-01-12T07:00:39.537Z,5.14
2018-01-12T07:01:39.465Z,5.12
2018-01-12T07:02:39.401Z,5.09
2018-01-12T07:03:39.337Z,5.12
2018-01-12T07:04:39.275Z,5.12
2018-01-12T07:05:39.205Z,5.02
2018-01-12T07:06:39.141Z,5.13
2018-01-12T07:07:39.076Z,5.05
2018-01-12T07:08:39.011Z,5.07
2018-01-12T07:09:38.945Z,5.09
2018-01-12T07:10:38.881Z,5.12
2018-01-12T07:11:38.817Z,5.09
2018-01-12T07:12:38.752Z,5.10
2018-01-12T07:13:38.685Z,5.09
2018-01-12T07:14:38.626Z,5.07
2018-01-12T07:15:38.558Z,5.09
2018-01-12T07:16:38.490Z,5.07
2018-01-12T07:17:38.426Z,5.07
2018-01-12T07:18:38.382Z,5.04
2018-01-12T07:19:38.295Z,5.09
2018-01-12T07:20:38.230Z,5.12
2018-01-12T07:21:38.165Z,5.12
2018-01-12T07:22:38.102Z,5.07
2018-01-12T07:23:38.036Z,5.10
2018-01-12T07:24:37.970Z,5.07
2018-01-12T07:25:37.906Z,5.09
2018-01-12T07:26:37.840Z,5.09
2018-01-12T07:27:37.776Z,5.12
2018-01-12T07:28:37.712Z,5.09
2018-01-12T07:29:37.645Z,5.13
2018-01-12T07:30:37.579Z,5.12
2018-01-12T07:31:37.516Z,5.10
2018-01-12T07:32:37.501Z,5.07
2018-01-12T07:33:37.385Z,5.10
2018-01-12T07:34:37.339Z,5.09
2018-01-12T07:35:37.255Z,5.13
2018-01-12T07:36:37.189Z,5.12
2018-01-12T07:37:37.123Z,5.13
2018-01-12T07:38:37.060Z,5.09
2018-01-12T07:39:37.016Z,5.09
2018-01-12T07:40:36.929Z,5.09
2018-01-12T07:41:36.864Z,5.09
2018-01-12T07:42:36.799Z,5.13
2018-01-12T07:43:36.734Z,5.12
2018-01-12T07:44:36.668Z,5.14
2018-01-12T07:45:36.603Z,5.10
2018-01-12T07:46:36.538Z,5.16
2018-01-12T07:47:36.477Z,5.12
2018-01-12T07:48:36.408Z,5.12
2018-01-12T07:49:36.343Z,5.17
2018-01-12T07:50:36.280Z,5.12
2018-01-12T07:51:36.214Z,5.07
2018-01-12T07:52:36.148Z,5.16
2018-01-12T07:53:36.082Z,5.13
2018-01-12T07:54:36.017Z,5.16
2018-01-12T07:55:35.952Z,5.17
2018-01-12T07:56:35.888Z,5.13
2018-01-12T07:57:35.821Z,5.13
2018-01-12T07:58:35.756Z,5.13
2018-01-12T07:59:35.713Z,5.09
2018-01-12T08:00:35.627Z,5.16
2018-01-12T08:01:35.561Z,5.19
2018-01-12T08:02:35.513Z,5.17
2018-01-12T08:03:35.439Z,5.23
2018-01-12T08:04:35.365Z,5.23
2018-01-12T08:05:35.299Z,5.19
2018-01-12T08:06:35.235Z,5.25
2018-01-12T08:07:35.171Z,5.31
2018-01-12T08:08:35.106Z,5.28
2018-01-12T08:09:35.040Z,5.30
2018-01-12T08:10:34.975Z,5.30
2018-01-12T08:11:34.916Z,5.38
2018-01-12T08:12:34.845Z,5.34
2018-01-12T08:13:34.780Z,5.41
2018-01-12T08:14:34.719Z,5.25
2018-01-12T08:15:34.651Z,5.30
2018-01-12T08:16:34.586Z,5.27
2018-01-12T08:17:34.521Z,5.38
2018-01-12T08:18:34.455Z,5.43
2018-01-12T08:19:34.391Z,5.35
2018-01-12T08:20:34.325Z,5.37
2018-01-12T08:21:34.260Z,5.30
2018-01-12T08:22:34.224Z,5.38
2018-01-12T08:23:34.130Z,5.37
2018-01-12T08:24:34.068Z,5.38
2018-01-12T08:25:34.000Z,5.38
2018-01-12T08:26:33.936Z,5.38
2018-01-12T08:27:33.872Z,5.38
2018-01-12T08:28:33.806Z,5.34
2018-01-12T08:29:33.791Z,5.41
2018-01-12T08:30:33.677Z,5.41
2018-01-12T08:31:33.612Z,5.50
2018-01-12T08:32:33.547Z,5.43
2018-01-12T08:33:33.482Z,5.46
2018-01-12T08:34:33.417Z,5.45
2018-01-12T08:35:33.357Z,5.43
2018-01-12T08:36:33.287Z,5.45
2018-01-12T08:37:33.222Z,5.50
2018-01-12T08:38:33.157Z,5.49
2018-01-12T08:39:33.093Z,5.55
2018-01-12T08:40:33.029Z,5.64
2018-01-12T08:41:32.965Z,5.53
2018-01-12T08:42:32.902Z,5.53
2018-01-12T08:43:32.836Z,5.53
2018-01-12T08:44:32.769Z,5.55
2018-01-12T08:45:32.705Z,5.57
2018-01-12T08:46:32.641Z,5.56
2018-01-12T08:47:32.575Z,5.55
2018-01-12T08:48:32.510Z,5.60
2018-01-12T08:49:32.446Z,5.63
2018-01-12T08:50:32.381Z,5.64
2018-01-12T08:51:32.316Z,5.68
2018-01-12T08:52:32.252Z,5.60
2018-01-12T08:53:32.186Z,5.66
2018-01-12T08:54:32.122Z,5.64
2018-01-12T08:55:32.058Z,5.60
2018-01-12T08:56:31.992Z,5.68
2018-01-12T08:57:31.928Z,5.73
2018-01-12T08:58:31.863Z,5.78
2018-01-12T08:59:31.800Z,5.73
2018-01-12T09:00:31.735Z,5.73
2018-01-12T09:01:31.669Z,5.77
2018-01-12T09:02:31.605Z,5.77
2018-01-12T09:03:31.540Z,5.78
2018-01-12T09:04:31.479Z,5.96
2018-01-12T09:05:31.411Z,5.83
2018-01-12T09:06:31.346Z,5.88
2018-01-12T09:07:31.284Z,5.92
2018-01-12T09:08:31.220Z,5.89
2018-01-12T09:09:31.154Z,5.89
2018-01-12T09:10:31.106Z,5.93
2018-01-12T09:11:31.025Z,6.01
2018-01-12T09:12:30.960Z,5.91
2018-01-12T09:13:30.895Z,5.89
2018-01-12T09:14:30.832Z,5.86
2018-01-12T09:15:30.767Z,6.01
2018-01-12T09:16:30.705Z,5.92
2018-01-12T09:17:30.638Z,5.92
2018-01-12T09:18:30.575Z,5.95
2018-01-12T09:19:30.509Z,6.01
2018-01-12T09:20:30.442Z,5.95
2018-01-12T09:21:30.380Z,5.95
2018-01-12T09:22:30.315Z,5.89
2018-01-12T09:23:30.258Z,6.00
2018-01-12T09:24:30.187Z,6.00
2018-01-12T09:25:30.161Z,6.06
2018-01-12T09:26:30.059Z,6.09
2018-01-12T09:27:29.994Z,6.06
2018-01-12T09:28:29.929Z,6.14
2018-01-12T09:29:29.864Z,6.18
2018-01-12T09:30:29.801Z,6.16
2018-01-12T09:31:29.738Z,6.35
2018-01-12T09:32:29.671Z,6.35
2018-01-12T09:33:29.608Z,6.29
2018-01-12T09:34:29.544Z,6.29
2018-01-12T09:35:29.480Z,6.33
2018-01-12T09:36:29.415Z,6.32
2018-01-12T09:37:29.350Z,6.36
2018-01-12T09:38:29.285Z,6.35
2018-01-12T09:39:29.223Z,6.35
2018-01-12T09:40:29.158Z,6.43
2018-01-12T09:41:29.094Z,6.43
2018-01-12T09:42:29.030Z,6.44
2018-01-12T09:43:28.966Z,6.32
2018-01-12T09:44:28.901Z,6.46
2018-01-12T09:45:28.838Z,6.48
2018-01-12T09:46:28.777Z,6.48
2018-01-12T09:47:28.709Z,6.47
2018-01-12T09:48:28.645Z,6.53
2018-01-12T09:49:28.582Z,6.54
2018-01-12T09:50:28.518Z,6.59
2018-01-12T09:51:28.453Z,6.54
2018-01-12T09:52:28.390Z,6.59
2018-01-12T09:53:28.328Z,6.61
2018-01-12T09:54:28.262Z,6.62
2018-01-12T09:55:28.199Z,6.59
2018-01-12T09:56:28.134Z,6.66
2018-01-12T09:57:28.070Z,6.63
2018-01-12T09:58:28.008Z,6.65
2018-01-12T09:59:27.943Z,6.65
2018-01-12T10:00:27.879Z,6.59
2018-01-12T10:01:27.815Z,6.63
2018-01-12T10:02:27.750Z,6.59
2018-01-12T10:03:27.688Z,6.77
2018-01-12T10:05:27.559Z,6.61
2018-01-12T10:06:27.496Z,6.66
2018-01-12T10:07:27.432Z,6.66
2018-01-12T10:08:27.370Z,6.73
2018-01-12T10:09:27.304Z,6.68
2018-01-12T10:10:27.240Z,6.66
2018-01-12T10:11:27.176Z,6.65
2018-01-12T10:12:27.113Z,6.66
2018-01-12T10:13:27.049Z,6.77
2018-01-12T10:14:26.986Z,6.68
2018-01-12T10:15:26.922Z,6.73
2018-01-12T10:16:26.858Z,6.77
2018-01-12T10:17:26.795Z,6.65
2018-01-12T10:18:26.772Z,6.77
2018-01-12T10:19:26.667Z,6.72
2018-01-12T10:20:26.609Z,6.71
2018-01-12T10:21:26.540Z,6.76
2018-01-12T10:22:26.476Z,6.69
2018-01-12T10:23:26.413Z,6.79
2018-01-12T10:24:26.350Z,6.86
2018-01-12T10:25:26.284Z,6.73
2018-01-12T10:26:26.221Z,6.79
2018-01-12T10:27:26.158Z,6.83
2018-01-12T10:28:26.094Z,6.79
2018-01-12T10:29:26.050Z,6.86
2018-01-12T10:30:25.966Z,6.80
2018-01-12T10:31:25.903Z,6.80
2018-01-12T10:32:25.838Z,6.83
2018-01-12T10:33:25.776Z,6.94
2018-01-12T10:34:25.714Z,6.86
2018-01-12T10:35:25.649Z,6.89
2018-01-12T10:36:25.584Z,6.91
2018-01-12T10:37:25.523Z,6.89
2018-01-12T10:38:25.459Z,6.87
2018-01-12T10:39:25.393Z,6.87
2018-01-12T10:40:25.330Z,6.80
2018-01-12T10:41:25.267Z,6.84
2018-01-12T10:42:25.204Z,6.79
2018-01-12T10:43:25.140Z,6.80
2018-01-12T10:44:25.076Z,6.95
2018-01-12T10:45:25.012Z,6.87
2018-01-12T10:46:24.951Z,6.94
2018-01-12T10:47:24.885Z,6.86
2018-01-12T10:48:24.823Z,6.89
2018-01-12T10:49:24.770Z,6.91
2018-01-12T10:50:24.694Z,6.94
2018-01-12T10:51:24.631Z,6.94
2018-01-12T10:52:24.568Z,6.90
2018-01-12T10:53:24.525Z,6.97
2018-01-12T10:54:24.440Z,6.89
2018-01-12T10:55:24.377Z,6.89
2018-01-12T10:56:24.312Z,6.87
2018-01-12T10:57:24.248Z,6.90
2018-01-12T10:58:24.185Z,6.89
2018-01-12T10:59:24.122Z,6.80
2018-01-12T11:00:24.057Z,6.95
2018-01-12T11:01:23.993Z,6.94
2018-01-12T11:02:23.929Z,6.98
2018-01-12T11:03:23.868Z,6.89
2018-01-12T11:04:23.807Z,6.87
2018-01-12T11:05:23.739Z,6.90
2018-01-12T11:06:23.675Z,6.91
2018-01-12T11:07:23.612Z,6.97
2018-01-12T11:08:23.549Z,6.89
2018-01-12T11:09:23.485Z,6.91
2018-01-12T11:10:23.420Z,6.97
2018-01-12T11:11:23.359Z,6.90
2018-01-12T11:12:23.294Z,6.90
2018-01-12T11:13:23.230Z,6.90
2018-01-12T11:14:23.168Z,6.89
2018-01-12T11:15:23.104Z,6.97
2018-01-12T11:16:23.040Z,6.94
2018-01-12T11:17:22.977Z,6.91
2018-01-12T11:18:22.912Z,7.01
2018-01-12T11:19:22.849Z,7.05
2018-01-12T11:20:22.785Z,7.04
2018-01-12T11:21:22.721Z,7.07
2018-01-12T11:22:22.659Z,7.08
2018-01-12T11:23:22.595Z,7.07
2018-01-12T11:24:22.530Z,7.13
2018-01-12T11:25:22.469Z,7.29
2018-01-12T11:26:22.407Z,7.32
2018-01-12T11:27:22.342Z,7.47
2018-01-12T11:28:22.285Z,7.41
2018-01-12T11:29:22.215Z,7.45
2018-01-12T11:30:22.156Z,7.49
2018-01-12T11:31:22.090Z,7.71
2018-01-12T11:32:22.025Z,7.59
2018-01-12T11:33:21.961Z,7.69
2018-01-12T11:34:21.899Z,7.67
2018-01-12T11:35:21.836Z,7.58
2018-01-12T11:36:21.772Z,7.60
2018-01-12T11:37:21.709Z,7.42
2018-01-12T11:38:21.646Z,7.52
2018-01-12T11:39:21.590Z,7.37
2018-01-12T11:40:21.519Z,7.47
2018-01-12T11:41:21.458Z,7.59
2018-01-12T11:42:21.395Z,7.60
2018-01-12T11:43:21.332Z,7.63
2018-01-12T11:44:21.268Z,7.59
2018-01-12T11:45:21.207Z,7.69
2018-01-12T11:46:21.143Z,7.67
2018-01-12T11:47:21.080Z,7.60
2018-01-12T11:48:21.019Z,7.60
2018-01-12T11:49:20.955Z,7.71
2018-01-12T11:50:20.893Z,7.75
2018-01-12T11:51:20.828Z,7.75
2018-01-12T11:52:20.767Z,7.74
2018-01-12T11:53:20.721Z,7.78
2018-01-12T11:54:20.640Z,7.81
2018-01-12T11:55:20.577Z,7.89
2018-01-12T11:56:20.514Z,7.79
2018-01-12T11:57:20.451Z,7.90
2018-01-12T11:58:20.388Z,7.96
2018-01-12T11:59:20.327Z,7.94
2018-01-12T12:00:20.263Z,8.00
2018-01-12T12:01:20.200Z,8.03
2018-01-12T12:02:20.138Z,8.07
2018-01-12T12:03:20.075Z,8.07
2018-01-12T12:04:20.013Z,7.92
2018-01-12T12:05:19.949Z,7.94
2018-01-12T12:06:19.887Z,7.84
2018-01-12T12:07:19.824Z,7.81
2018-01-12T12:08:19.760Z,7.60
2018-01-12T12:09:19.698Z,7.59
2018-01-12T12:10:19.637Z,7.67
2018-01-12T12:11:19.573Z,7.79
2018-01-12T12:12:19.509Z,7.84
2018-01-12T12:13:19.448Z,7.93
2018-01-12T12:14:19.385Z,7.99
2018-01-12T12:15:19.322Z,8.10
2018-01-12T12:16:19.259Z,8.02
2018-01-12T12:17:19.198Z,8.10
2018-01-12T12:18:19.135Z,8.03
2018-01-12T12:19:19.071Z,8.11
2018-01-12T12:20:19.009Z,8.10
2018-01-12T12:21:18.948Z,8.15
2018-01-12T12:22:18.883Z,8.10
2018-01-12T12:23:18.822Z,8.02
2018-01-12T12:24:18.759Z,8.00
2018-01-12T12:25:18.697Z,8.00
2018-01-12T12:26:18.634Z,7.92
2018-01-12T12:27:18.572Z,7.79
2018-01-12T12:28:18.515Z,7.81
2018-01-12T12:29:18.447Z,7.84
2018-01-12T12:30:18.384Z,7.90
2018-01-12T12:31:18.322Z,7.87
2018-01-12T12:32:18.259Z,7.90
2018-01-12T12:33:18.196Z,7.84
2018-01-12T12:34:18.135Z,7.81
2018-01-12T12:35:18.072Z,7.66
2018-01-12T12:36:18.008Z,7.67
2018-01-12T12:37:17.946Z,7.58
2018-01-12T12:38:17.884Z,7.45
2018-01-12T12:39:17.821Z,7.50
2018-01-12T12:40:17.761Z,7.42
2018-01-12T12:41:17.695Z,7.50
2018-01-12T12:42:17.633Z,7.40
2018-01-12T12:43:17.570Z,7.38
2018-01-12T12:44:17.507Z,7.32
2018-01-12T12:45:17.447Z,7.27
2018-01-12T12:46:17.380Z,7.27
2018-01-12T12:47:17.317Z,7.35
2018-01-12T12:48:17.254Z,7.34
2018-01-12T12:49:17.189Z,7.35
2018-01-12T12:50:17.129Z,7.26
2018-01-12T12:51:17.090Z,7.22
2018-01-12T12:52:17.000Z,7.31
2018-01-12T12:53:16.939Z,7.27
2018-01-12T12:54:16.875Z,7.26
2018-01-12T12:55:16.812Z,7.34
2018-01-12T12:56:16.747Z,7.29
2018-01-12T12:57:16.685Z,7.31
2018-01-12T12:58:16.621Z,7.34
2018-01-12T12:59:16.561Z,7.35
2018-01-12T13:00:16.494Z,7.37
2018-01-12T13:01:16.431Z,7.44
2018-01-12T13:02:16.368Z,7.41
2018-01-12T13:03:16.304Z,7.38
2018-01-12T13:04:16.241Z,7.62
2018-01-12T13:05:16.178Z,7.59
2018-01-12T13:06:16.113Z,7.59
2018-01-12T13:07:16.051Z,7.71
2018-01-12T13:08:15.987Z,7.72
2018-01-12T13:09:15.924Z,7.67
2018-01-12T13:10:15.860Z,7.67
2018-01-12T13:11:15.799Z,7.74
2018-01-12T13:12:15.734Z,7.62
2018-01-12T13:13:15.670Z,7.55
2018-01-12T13:14:15.608Z,7.62
2018-01-12T13:15:15.545Z,7.49
2018-01-12T13:16:15.480Z,7.58
2018-01-12T13:17:15.419Z,7.55
2018-01-12T13:18:15.362Z,7.59